Time;durP1;ratioP1;P1;durP2;ratioP2;P2;SDS_P1;SDS_P2;PMS_P1;PMS_P2;Temp;Humidity;BMP_temperature;BMP_pressure;BME280_temperature;BME280_humidity;BME280_pressure;Samples;Min_cycle;Max_cycle;Signal;HPM_P1;HPM_P2
2023/09/04 00:01:07;;;;;;;5.25;2.75;;;;;;;18.17;62.31;101464.06;10289503;28;20047;-70
2023/09/04 00:06:08;;;;;;;5.85;2.97;;;;;;;18.11;62.42;101469.44;10289154;28;20069;-70
2023/09/04 00:11:10;;;;;;;4.45;2.67;;;;;;;17.99;62.73;101461.00;10285009;28;20070;-72
2023/09/04 00:16:11;;;;;;;3.63;2.75;;;;;;;17.91;63.03;101459.28;10284243;28;20051;-73
2023/09/04 00:21:13;;;;;;;4.95;3.13;;;;;;;17.83;63.22;101460.28;10286389;28;20320;-72
2023/09/04 00:26:14;;;;;;;4.60;3.10;;;;;;;17.80;63.43;101467.94;10289107;28;20118;-74
2023/09/04 00:31:16;;;;;;;6.75;4.20;;;;;;;17.78;63.62;101470.03;10287074;28;20052;-70
2023/09/04 00:36:17;;;;;;;7.70;3.50;;;;;;;17.72;63.75;101466.19;10295392;28;20055;-70
2023/09/04 00:41:19;;;;;;;5.10;3.80;;;;;;;17.72;64.05;101468.09;10284767;28;20043;-70
2023/09/04 00:46:21;;;;;;;6.93;3.13;;;;;;;17.68;64.25;101459.47;10288364;28;20367;-71
2023/09/04 00:51:22;;;;;;;6.47;3.38;;;;;;;17.69;64.07;101463.03;10296219;28;20050;-70
2023/09/04 00:56:24;;;;;;;5.72;3.22;;;;;;;17.65;64.55;101448.97;10293142;28;20074;-71
2023/09/04 01:01:26;;;;;;;4.97;3.05;;;;;;;17.54;64.62;101450.34;10291637;28;20043;-73
2023/09/04 01:06:27;;;;;;;7.15;3.60;;;;;;;17.45;64.65;101441.47;10287507;28;20065;-70
2023/09/04 01:11:40;;;;;;;5.30;3.05;;;;;;;17.37;64.89;101446.22;10291655;28;20113;-69
2023/09/04 01:16:42;;;;;;;4.68;3.22;;;;;;;17.32;64.90;101438.66;10285244;28;20047;-73
2023/09/04 01:21:44;;;;;;;5.50;3.83;;;;;;;17.30;65.05;101434.41;10290646;28;20063;-69
2023/09/04 01:27:06;;;;;;;5.50;3.15;;;;;;;17.23;65.15;101434.38;10289457;28;20110;-69
2023/09/04 01:32:36;;;;;;;5.07;3.42;;;;;;;17.17;65.22;101437.84;10283695;28;20339;-69
2023/09/04 01:37:39;;;;;;;5.13;3.63;;;;;;;17.10;65.60;101434.22;10286935;28;20050;-68
2023/09/04 01:42:40;;;;;;;6.63;4.20;;;;;;;17.04;65.48;101433.09;10289067;28;20051;-68
2023/09/04 01:47:41;;;;;;;5.57;3.95;;;;;;;16.99;65.60;101438.28;10302886;28;20307;-69
2023/09/04 01:52:43;;;;;;;6.55;3.97;;;;;;;16.94;65.86;101436.16;10288439;28;20043;-72
2023/09/04 01:57:44;;;;;;;5.70;3.58;;;;;;;16.94;65.75;101435.28;10297017;28;20051;-70
2023/09/04 02:02:46;;;;;;;3.35;2.80;;;;;;;16.94;66.04;101436.16;10293988;28;20109;-70
2023/09/04 02:07:48;;;;;;;7.65;3.63;;;;;;;16.91;66.14;101435.69;10291469;28;20186;-70
2023/09/04 02:12:49;;;;;;;4.78;3.80;;;;;;;16.89;66.46;101432.31;10291763;28;20335;-72
2023/09/04 02:17:52;;;;;;;8.52;4.30;;;;;;;16.88;66.57;101430.63;10304709;28;20114;-70
2023/09/04 02:22:53;;;;;;;4.13;3.33;;;;;;;16.82;66.81;101430.38;10286862;28;20069;-70
2023/09/04 02:27:55;;;;;;;6.15;4.10;;;;;;;16.73;66.79;101411.63;10293239;28;20145;-70
2023/09/04 02:32:58;;;;;;;6.45;3.83;;;;;;;16.71;66.91;101424.56;10288334;28;20323;-69
2023/09/04 02:38:00;;;;;;;5.82;3.90;;;;;;;16.66;67.13;101422.41;10299567;28;20051;-70
2023/09/04 02:43:03;;;;;;;5.90;3.83;;;;;;;16.64;66.90;101413.59;10288675;28;20355;-69
2023/09/04 02:48:04;;;;;;;6.38;3.58;;;;;;;16.59;66.94;101418.78;10283432;28;20063;-70
2023/09/04 02:53:06;;;;;;;5.18;4.20;;;;;;;16.55;67.26;101421.03;10285884;28;20336;-70
2023/09/04 02:58:07;;;;;;;6.97;4.18;;;;;;;16.51;67.15;101410.72;10291907;28;20297;-70
2023/09/04 03:03:09;;;;;;;8.60;4.15;;;;;;;16.44;67.20;101416.91;10290045;28;20423;-70
2023/09/04 03:08:10;;;;;;;10.05;4.35;;;;;;;16.25;67.66;101431.88;10297029;28;20252;-68
2023/09/04 03:13:11;;;;;;;6.82;4.43;;;;;;;16.21;67.66;101425.16;10292161;28;20051;-70
2023/09/04 03:18:13;;;;;;;6.57;4.20;;;;;;;16.21;67.62;101425.16;10284029;28;20232;-69
2023/09/04 03:23:14;;;;;;;6.53;3.78;;;;;;;16.12;67.67;101422.72;10289651;28;20278;-69
2023/09/04 03:28:16;;;;;;;5.18;3.80;;;;;;;16.04;67.91;101429.91;10286437;28;20050;-70
2023/09/04 03:33:17;;;;;;;7.15;3.28;;;;;;;16.08;67.74;101424.13;10288340;28;20576;-69
2023/09/04 03:38:19;;;;;;;5.85;3.85;;;;;;;16.09;67.51;101428.50;10291316;28;20065;-68
2023/09/04 03:43:20;;;;;;;6.93;3.85;;;;;;;16.03;67.42;101428.22;10288209;28;20049;-69
2023/09/04 03:48:22;;;;;;;9.40;4.03;;;;;;;16.00;67.45;101419.63;10287730;28;20204;-68
2023/09/04 03:53:24;;;;;;;8.57;3.63;;;;;;;15.96;67.86;101416.44;10283384;28;20113;-69
2023/09/04 03:58:25;;;;;;;5.07;3.70;;;;;;;15.95;67.84;101422.03;10286075;28;20065;-70
2023/09/04 04:03:27;;;;;;;7.85;3.70;;;;;;;15.93;67.93;101421.38;10289777;28;20260;-69
2023/09/04 04:08:28;;;;;;;8.23;4.00;;;;;;;15.88;67.97;101426.50;10297443;28;20047;-69
2023/09/04 04:13:30;;;;;;;6.20;4.00;;;;;;;15.83;68.19;101418.94;10291830;28;20063;-68
2023/09/04 04:18:31;;;;;;;6.70;4.15;;;;;;;15.79;68.29;101420.31;10300125;28;20052;-69
2023/09/04 04:23:34;;;;;;;6.40;4.20;;;;;;;15.75;68.21;101422.56;10292020;28;20050;-70
2023/09/04 04:28:35;;;;;;;8.95;4.10;;;;;;;15.69;68.23;101435.97;10292784;28;20053;-69
2023/09/04 04:33:37;;;;;;;10.45;4.13;;;;;;;15.65;68.24;101433.63;10288688;28;20050;-73
2023/09/04 04:38:38;;;;;;;9.43;4.90;;;;;;;15.60;68.25;101437.91;10299338;28;20113;-68
2023/09/04 04:43:40;;;;;;;8.25;4.53;;;;;;;15.49;68.64;101441.91;10289467;28;20070;-67
2023/09/04 04:48:41;;;;;;;5.90;4.57;;;;;;;15.52;68.64;101452.38;10287799;28;20109;-66
2023/09/04 04:53:42;;;;;;;7.43;4.63;;;;;;;15.52;68.55;101457.81;10287047;28;20170;-67
2023/09/04 04:58:44;;;;;;;7.68;4.80;;;;;;;15.42;68.74;101471.59;10283186;28;20295;-67
2023/09/04 05:03:45;;;;;;;9.23;5.43;;;;;;;15.40;68.84;101465.50;10291210;28;20043;-67
2023/09/04 05:08:47;;;;;;;7.30;4.63;;;;;;;15.39;69.12;101462.97;10283320;28;20058;-67
2023/09/04 05:13:48;;;;;;;7.75;4.15;;;;;;;15.47;68.88;101461.03;10286259;28;20061;-68
2023/09/04 05:18:49;;;;;;;7.05;4.15;;;;;;;15.50;69.08;101459.84;10288254;28;20117;-65
2023/09/04 05:23:52;;;;;;;10.40;4.50;;;;;;;15.39;69.25;101447.56;10288088;28;20142;-66
2023/09/04 05:28:53;;;;;;;8.48;5.53;;;;;;;15.48;69.09;101448.31;10291226;28;20122;-65
2023/09/04 05:33:55;;;;;;;5.90;4.30;;;;;;;15.60;69.03;101454.16;10286002;28;20131;-66
2023/09/04 05:38:56;;;;;;;6.93;4.47;;;;;;;15.59;69.12;101450.63;10283287;28;20054;-65
2023/09/04 05:43:58;;;;;;;9.82;4.47;;;;;;;15.69;69.35;101453.06;10285363;28;20122;-67
2023/09/04 05:48:59;;;;;;;5.45;3.75;;;;;;;15.78;69.08;101451.19;10285100;28;20050;-68
2023/09/04 05:54:00;;;;;;;4.82;3.15;;;;;;;15.88;69.15;101451.78;10294048;28;20285;-68
2023/09/04 05:59:03;;;;;;;4.60;3.60;;;;;;;16.06;69.12;101444.13;10292407;28;20390;-67
2023/09/04 06:04:05;;;;;;;6.90;3.20;;;;;;;16.29;68.77;101448.66;10301613;28;20114;-68
2023/09/04 06:09:07;;;;;;;9.38;4.40;;;;;;;16.51;68.43;101446.00;10286957;28;20320;-68
2023/09/04 06:14:09;;;;;;;7.43;3.70;;;;;;;16.71;68.13;101438.97;10289779;28;20047;-69
2023/09/04 06:19:10;;;;;;;6.55;3.55;;;;;;;16.88;68.44;101438.78;10288804;28;20284;-67
2023/09/04 06:24:12;;;;;;;4.70;2.78;;;;;;;17.07;68.36;101448.19;10288454;28;20141;-70
2023/09/04 06:29:16;;;;;;;9.32;3.35;;;;;;;17.25;68.08;101438.56;10289633;28;20046;-73
2023/09/04 06:34:17;;;;;;;9.23;2.90;;;;;;;17.41;68.23;101444.78;10288088;28;20078;-70
2023/09/04 06:39:18;;;;;;;4.03;2.75;;;;;;;17.60;67.83;101441.41;10286674;28;20114;-73
2023/09/04 06:44:20;;;;;;;7.18;3.92;;;;;;;17.77;67.75;101447.44;10290586;28;20058;-74
2023/09/04 06:49:21;;;;;;;5.05;2.42;;;;;;;17.91;67.74;101440.25;10279859;28;20055;-74
2023/09/04 06:54:24;;;;;;;4.78;2.10;;;;;;;18.04;67.22;101443.03;10282034;28;20123;-73
2023/09/04 06:59:26;;;;;;;5.60;1.98;;;;;;;18.12;67.33;101444.78;10284639;28;20358;-70
2023/09/04 07:04:27;;;;;;;2.88;1.95;;;;;;;18.35;66.80;101441.78;10293595;28;20145;-70
2023/09/04 07:09:29;;;;;;;2.25;1.85;;;;;;;18.49;66.44;101439.97;10282794;28;20062;-74
2023/09/04 07:14:32;;;;;;;2.03;1.50;;;;;;;18.69;66.21;101437.34;10284306;28;20066;-73
2023/09/04 07:19:33;;;;;;;4.35;1.45;;;;;;;18.82;65.92;101431.16;10283952;28;20105;-68
2023/09/04 07:24:34;;;;;;;3.42;1.63;;;;;;;18.93;65.44;101429.72;10281507;28;20096;-68
2023/09/04 07:29:36;;;;;;;1.85;1.67;;;;;;;19.06;65.32;101424.31;10280879;28;20055;-68
2023/09/04 07:34:37;;;;;;;1.45;1.10;;;;;;;19.10;65.10;101431.03;10281367;28;20110;-69
2023/09/04 07:39:39;;;;;;;2.67;1.52;;;;;;;19.24;64.56;101433.78;10283721;28;20069;-70
2023/09/04 07:44:40;;;;;;;2.78;1.75;;;;;;;19.44;64.29;101431.09;10282069;28;20971;-70
2023/09/04 07:49:42;;;;;;;7.03;1.20;;;;;;;19.65;63.51;101419.97;10277249;28;20355;-69
2023/09/04 07:54:44;;;;;;;2.97;1.30;;;;;;;19.74;62.87;101426.91;10282840;28;20073;-69
2023/09/04 07:59:46;;;;;;;8.48;1.05;;;;;;;19.95;62.42;101425.84;10284089;28;20062;-67
2023/09/04 08:04:47;;;;;;;1.88;1.00;;;;;;;20.03;62.11;101424.81;10292897;28;20047;-69
2023/09/04 08:09:49;;;;;;;2.58;0.90;;;;;;;20.27;61.61;101417.81;10283174;28;20130;-68
2023/09/04 08:14:51;;;;;;;3.40;1.42;;;;;;;20.44;61.36;101426.41;10279708;28;20591;-67
2023/09/04 08:19:52;;;;;;;2.42;0.93;;;;;;;20.55;60.70;101417.50;10286943;28;20051;-66
2023/09/04 08:24:54;;;;;;;1.45;1.17;;;;;;;20.76;60.02;101424.59;10283743;28;20415;-68
2023/09/04 08:29:56;;;;;;;1.55;0.98;;;;;;;20.89;59.66;101425.59;10283997;28;20130;-67
2023/09/04 08:34:57;;;;;;;2.67;1.02;;;;;;;21.12;59.74;101423.16;10282275;28;20283;-68
2023/09/04 08:39:58;;;;;;;2.03;1.10;;;;;;;21.36;58.75;101428.88;10279338;28;20455;-69
2023/09/04 08:45:01;;;;;;;1.70;0.80;;;;;;;21.58;58.67;101412.97;10280362;28;20117;-69
2023/09/04 08:50:02;;;;;;;2.10;0.95;;;;;;;21.70;58.12;101419.41;10289323;28;20059;-69
2023/09/04 08:55:08;;;;;;;4.47;0.90;;;;;;;21.92;57.50;101408.88;10306535;28;20445;-69
2023/09/04 09:00:10;;;;;;;2.08;0.65;;;;;;;22.09;57.23;101403.66;10291417;28;20066;-69
2023/09/04 09:05:15;;;;;;;3.92;0.77;;;;;;;22.29;56.94;101406.19;10290894;28;20050;-70
2023/09/04 09:10:19;;;;;;;1.90;0.80;;;;;;;22.46;56.20;101406.44;10288800;28;20335;-69
2023/09/04 09:15:20;;;;;;;2.70;0.85;;;;;;;22.67;55.14;101404.28;10290163;28;20093;-68
2023/09/04 09:20:46;;;;;;;1.70;0.60;;;;;;;22.83;54.37;101398.16;10289585;28;20053;-70
2023/09/04 09:25:54;;;;;;;0.50;0.47;;;;;;;23.06;53.84;101394.69;10292111;28;20106;-69
2023/09/04 09:30:57;;;;;;;4.05;0.50;;;;;;;23.27;52.50;101395.25;10286610;28;20070;-69
2023/09/04 09:35:58;;;;;;;3.35;0.80;;;;;;;23.49;51.95;101388.13;10287583;28;20054;-70
2023/09/04 09:41:00;;;;;;;3.08;0.55;;;;;;;23.76;51.10;101377.50;10289236;28;20382;-70
2023/09/04 09:46:01;;;;;;;2.85;0.50;;;;;;;23.95;50.59;101364.53;10282251;28;20244;-71
2023/09/04 09:51:06;;;;;;;1.45;0.40;;;;;;;24.12;49.77;101372.84;10287775;28;20196;-70
2023/09/04 09:56:09;;;;;;;1.45;0.47;;;;;;;24.35;48.65;101366.47;10286454;28;20047;-68
2023/09/04 10:01:15;;;;;;;2.30;0.47;;;;;;;24.58;48.10;101358.44;10279812;28;20296;-69
2023/09/04 10:06:29;;;;;;;4.25;0.60;;;;;;;24.80;47.52;101353.06;10284434;28;20138;-70
2023/09/04 10:11:33;;;;;;;1.00;0.68;;;;;;;25.00;46.87;101345.22;10287121;28;20065;-69
2023/09/04 10:16:40;;;;;;;1.80;0.38;;;;;;;25.24;46.38;101337.66;10285949;28;20050;-70
2023/09/04 10:21:51;;;;;;;3.13;0.80;;;;;;;25.61;45.42;101336.31;10286296;28;20055;-70
2023/09/04 10:27:13;;;;;;;1.80;0.50;;;;;;;25.98;44.50;101322.81;10292944;28;20102;-69
2023/09/04 10:32:15;;;;;;;1.85;0.35;;;;;;;26.49;44.07;101322.59;10296229;28;20054;-71
2023/09/04 10:37:16;;;;;;;1.00;0.40;;;;;;;26.98;41.93;101322.59;10280875;28;20050;-70
2023/09/04 10:42:18;;;;;;;2.25;0.30;;;;;;;27.48;40.79;101313.06;10283643;28;20042;-69
2023/09/04 10:47:20;;;;;;;0.88;0.40;;;;;;;27.93;38.99;101313.63;10279665;28;20055;-70
2023/09/04 10:52:40;;;;;;;5.50;1.00;;;;;;;28.49;37.45;101313.00;10282505;28;20042;-69
2023/09/04 10:57:56;;;;;;;1.50;0.40;;;;;;;29.10;36.84;101311.47;10281353;28;20039;-69
2023/09/04 11:03:31;;;;;;;1.15;0.40;;;;;;;29.54;35.62;101297.84;10285411;28;20114;-70
2023/09/04 11:08:40;;;;;;;0.70;0.50;;;;;;;29.91;34.48;101285.59;10284060;28;20054;-69
2023/09/04 11:13:43;;;;;;;4.43;0.40;;;;;;;30.16;34.49;101297.69;10281837;28;20197;-74
2023/09/04 11:18:44;;;;;;;1.40;0.32;;;;;;;30.25;33.88;101285.72;10281253;28;20252;-72
2023/09/04 11:23:46;;;;;;;4.55;0.50;;;;;;;30.26;33.44;101281.00;10300344;28;20126;-71
2023/09/04 11:28:49;;;;;;;0.98;0.70;;;;;;;30.29;32.76;101274.03;10284428;28;20047;-71
2023/09/04 11:33:51;;;;;;;0.65;0.40;;;;;;;30.37;32.41;101276.22;10282741;28;20287;-71
2023/09/04 11:39:07;;;;;;;3.03;0.30;;;;;;;30.48;31.98;101261.19;10285077;28;20267;-70
2023/09/04 11:44:08;;;;;;;;;;;;;;;30.70;33.31;101254.38;10287059;28;20374;-70
2023/09/04 11:49:10;;;;;;;2.53;0.30;;;;;;;30.86;31.75;101244.78;10280607;28;20043;-70
2023/09/04 11:54:11;;;;;;;1.00;0.30;;;;;;;31.06;31.56;101249.34;10283409;28;20105;-70
2023/09/04 11:59:13;;;;;;;1.27;0.40;;;;;;;31.28;30.32;101240.56;10279085;28;20059;-69
2023/09/04 12:04:14;;;;;;;1.13;0.40;;;;;;;31.56;29.61;101246.38;10280045;28;20050;-69
2023/09/04 12:09:16;;;;;;;0.65;0.40;;;;;;;31.67;29.51;101241.53;10282959;28;20069;-69
2023/09/04 12:14:17;;;;;;;0.68;0.40;;;;;;;31.81;29.63;101234.09;10281208;28;20121;-71
2023/09/04 12:19:23;;;;;;;0.98;0.40;;;;;;;32.15;28.92;101233.13;10280224;28;20158;-71
2023/09/04 12:24:24;;;;;;;2.60;0.50;;;;;;;32.32;28.66;101230.63;10291322;28;20098;-71
2023/09/04 12:29:28;;;;;;;1.30;0.40;;;;;;;32.57;28.21;101211.94;10286361;28;20359;-70
2023/09/04 12:34:31;;;;;;;0.70;0.40;;;;;;;32.67;27.73;101208.16;10280784;28;20054;-68
2023/09/04 12:39:32;;;;;;;1.05;0.40;;;;;;;33.06;27.34;101202.16;10288069;28;20274;-71
2023/09/04 12:44:35;;;;;;;0.60;0.30;;;;;;;33.58;26.66;101183.28;10289123;28;20057;-71
2023/09/04 12:49:36;;;;;;;1.13;0.38;;;;;;;33.76;26.44;101175.16;10288244;28;20339;-71
2023/09/04 12:54:38;;;;;;;2.63;0.68;;;;;;;33.83;26.68;101158.81;10291308;28;20121;-70
2023/09/04 12:59:40;;;;;;;1.30;1.00;;;;;;;33.71;27.06;101151.00;10288094;28;20046;-71
2023/09/04 13:04:41;;;;;;;0.73;0.43;;;;;;;33.72;26.03;101152.63;10293395;28;20358;-69
2023/09/04 13:09:42;;;;;;;1.30;0.40;;;;;;;33.84;25.98;101152.09;10293610;28;20063;-73
2023/09/04 13:14:45;;;;;;;1.10;0.40;;;;;;;33.77;25.53;101141.38;10288933;28;20106;-71
2023/09/04 13:19:46;;;;;;;2.05;1.35;;;;;;;33.82;25.80;101142.38;10289325;28;20043;-70
2023/09/04 13:24:48;;;;;;;0.38;0.30;;;;;;;34.12;25.41;101129.66;10294748;28;20120;-70
2023/09/04 13:29:49;;;;;;;1.13;0.40;;;;;;;34.33;24.77;101130.03;10285090;28;20051;-71
2023/09/04 13:34:51;;;;;;;1.10;0.50;;;;;;;34.42;25.05;101128.13;10286257;28;20431;-70
2023/09/04 13:39:52;;;;;;;2.90;0.40;;;;;;;34.61;25.41;101127.06;10285424;28;20121;-71
2023/09/04 13:44:54;;;;;;;1.17;0.40;;;;;;;34.83;24.80;101113.06;10285726;28;20043;-72
2023/09/04 13:49:56;;;;;;;0.70;0.38;;;;;;;35.05;24.75;101108.56;10286146;28;20110;-69
2023/09/04 13:54:58;;;;;;;1.58;0.40;;;;;;;35.25;24.15;101109.97;10286386;28;20066;-69
2023/09/04 14:00:00;;;;;;;4.05;0.25;;;;;;;35.51;24.08;101110.84;10289217;28;20046;-70
2023/09/04 14:05:01;;;;;;;1.55;0.75;;;;;;;35.88;23.55;101103.03;10282057;28;20360;-70
2023/09/04 14:10:03;;;;;;;0.98;0.70;;;;;;;36.09;23.67;101102.34;10281071;28;20055;-69
2023/09/04 14:15:05;;;;;;;2.35;0.40;;;;;;;36.42;22.76;101101.84;10282754;28;20368;-69
2023/09/04 14:20:07;;;;;;;0.43;0.30;;;;;;;37.09;22.93;101094.66;10284384;28;20074;-68
2023/09/04 14:25:09;;;;;;;0.88;0.45;;;;;;;38.58;21.24;101094.31;10282856;28;20077;-69
2023/09/04 14:30:11;;;;;;;3.60;0.50;;;;;;;40.81;19.18;101085.78;10283877;28;20063;-69
2023/09/04 14:35:12;;;;;;;0.47;0.30;;;;;;;41.72;18.06;101091.53;10288555;28;20115;-69
2023/09/04 14:40:14;;;;;;;0.98;0.40;;;;;;;41.96;17.55;101079.91;10290686;28;20379;-70
2023/09/04 14:45:15;;;;;;;0.95;0.57;;;;;;;41.72;18.15;101077.41;10285523;28;20102;-69
2023/09/04 14:50:17;;;;;;;0.90;0.52;;;;;;;41.59;17.99;101071.03;10285262;28;20047;-69
2023/09/04 14:55:20;;;;;;;1.92;0.45;;;;;;;41.28;17.91;101072.00;10282895;28;20051;-69
2023/09/04 15:00:22;;;;;;;2.35;1.30;;;;;;;39.94;19.18;101062.09;10300315;28;20085;-69
2023/09/04 15:05:23;;;;;;;0.80;0.30;;;;;;;38.76;19.80;101047.94;10280903;28;20046;-69
2023/09/04 15:10:25;;;;;;;1.63;0.43;;;;;;;37.93;20.35;101049.84;10289409;28;20054;-70
2023/09/04 15:15:27;;;;;;;1.20;0.35;;;;;;;37.29;20.42;101048.22;10282562;28;20046;-69
2023/09/04 15:20:28;;;;;;;2.92;0.40;;;;;;;37.14;20.63;101041.22;10282403;28;20352;-69
2023/09/04 15:25:30;;;;;;;0.57;0.40;;;;;;;36.51;21.50;101046.59;10281446;28;20117;-70
2023/09/04 15:30:31;;;;;;;1.20;0.55;;;;;;;36.13;21.42;101047.34;10281342;28;20043;-70
2023/09/04 15:35:33;;;;;;;1.52;0.50;;;;;;;35.87;21.76;101033.38;10278740;28;20370;-69
2023/09/04 15:40:34;;;;;;;1.88;0.50;;;;;;;35.67;21.15;101035.69;10288242;28;20106;-71
2023/09/04 15:45:42;;;;;;;0.95;0.60;;;;;;;35.60;20.97;101029.75;10286218;28;20038;-70
2023/09/04 15:50:43;;;;;;;1.15;0.40;;;;;;;35.70;21.29;101023.84;10278699;28;20117;-69
2023/09/04 15:55:47;;;;;;;0.82;0.40;;;;;;;35.65;21.08;101018.41;10278399;28;20051;-71
2023/09/04 16:00:48;;;;;;;0.50;0.30;;;;;;;35.63;21.47;101012.31;10283642;28;20063;-69
2023/09/04 16:05:50;;;;;;;3.42;0.40;;;;;;;35.57;21.71;101010.00;10283782;28;20063;-70
2023/09/04 16:10:51;;;;;;;3.33;0.63;;;;;;;35.36;21.92;101005.06;10297783;28;20046;-69
2023/09/04 16:15:54;;;;;;;0.68;0.57;;;;;;;35.36;21.65;101005.06;10284119;28;20066;-69
2023/09/04 16:21:01;;;;;;;0.55;0.35;;;;;;;35.32;21.77;100998.47;10279258;28;20058;-69
2023/09/04 16:26:07;;;;;;;1.13;0.45;;;;;;;35.07;22.21;100992.53;10278700;28;20320;-69
2023/09/04 16:31:08;;;;;;;0.93;0.50;;;;;;;34.98;22.09;100996.44;10283470;28;20373;-69
2023/09/04 16:36:10;;;;;;;0.85;0.40;;;;;;;34.88;22.53;100989.19;10285025;28;20094;-69
2023/09/04 16:41:11;;;;;;;2.65;0.43;;;;;;;34.70;22.17;100985.53;10276135;28;20126;-68
2023/09/04 16:46:13;;;;;;;1.02;0.40;;;;;;;34.67;22.64;100994.53;10279021;28;20471;-68
2023/09/04 16:51:14;;;;;;;0.90;0.40;;;;;;;34.44;22.40;100997.41;10287827;28;20055;-69
2023/09/04 16:56:16;;;;;;;1.67;0.55;;;;;;;34.24;23.33;100984.81;10278502;28;20154;-68
2023/09/04 17:01:17;;;;;;;2.25;0.50;;;;;;;33.79;24.23;100990.44;10282515;28;20053;-68
2023/09/04 17:06:20;;;;;;;2.78;0.40;;;;;;;33.25;25.07;100981.91;10281150;28;20089;-67
2023/09/04 17:11:21;;;;;;;2.53;0.47;;;;;;;32.67;25.61;100982.59;10289642;28;20054;-68
2023/09/04 17:16:23;;;;;;;1.27;0.50;;;;;;;31.99;26.58;100980.22;10290983;28;20055;-66
2023/09/04 17:21:24;;;;;;;1.67;0.38;;;;;;;31.35;27.77;100985.38;10288150;28;20126;-70
2023/09/04 17:26:26;;;;;;;2.05;0.50;;;;;;;30.89;28.76;100980.47;10291404;28;20443;-71
2023/09/04 17:31:27;;;;;;;2.50;0.70;;;;;;;30.48;29.47;100980.91;10288141;28;20050;-70
2023/09/04 17:36:29;;;;;;;1.08;0.50;;;;;;;30.06;30.24;100979.66;10288092;28;20046;-72
2023/09/04 17:41:30;;;;;;;0.93;0.60;;;;;;;29.64;31.06;100981.91;10283559;28;20058;-69
2023/09/04 17:46:32;;;;;;;1.52;0.70;;;;;;;29.27;31.52;100979.69;10291334;28;20047;-70
2023/09/04 17:51:33;;;;;;;1.35;0.65;;;;;;;28.89;31.88;100979.31;10290908;28;20324;-73
2023/09/04 17:56:34;;;;;;;2.00;0.60;;;;;;;28.59;32.47;100977.47;10285209;28;20055;-71
2023/09/04 18:01:36;;;;;;;1.10;0.60;;;;;;;28.23;32.74;100975.56;10288025;28;20058;-71
2023/09/04 18:06:37;;;;;;;1.35;0.60;;;;;;;27.96;33.43;100972.28;10289612;28;20070;-69
2023/09/04 18:11:39;;;;;;;2.97;0.70;;;;;;;27.66;33.90;100984.97;10290548;28;20177;-70
2023/09/04 18:16:40;;;;;;;4.43;0.60;;;;;;;27.37;34.41;100979.97;10284511;28;20126;-72
2023/09/04 18:21:42;;;;;;;1.05;0.50;;;;;;;27.13;34.75;100982.34;10284036;28;20089;-71
2023/09/04 18:26:43;;;;;;;3.30;0.43;;;;;;;26.83;35.16;100983.06;10289616;28;20039;-71
2023/09/04 18:31:45;;;;;;;2.17;0.50;;;;;;;26.60;35.59;100993.47;10283108;28;20114;-73
2023/09/04 18:36:46;;;;;;;4.00;0.43;;;;;;;26.36;36.02;100984.72;10289115;28;20043;-74
2023/09/04 18:41:49;;;;;;;1.60;0.60;;;;;;;26.18;35.93;100990.66;10285782;28;20383;-74
2023/09/04 18:46:50;;;;;;;6.05;0.50;;;;;;;25.98;36.58;100991.34;10304291;28;20077;-76
2023/09/04 18:51:52;;;;;;;2.60;0.60;;;;;;;25.73;36.90;100992.75;10288304;28;20059;-79
2023/09/04 18:56:54;;;;;;;27.75;1.13;;;;;;;25.56;36.92;100994.81;10290647;28;20142;-77
2023/09/04 19:01:55;;;;;;;1.48;0.50;;;;;;;25.36;37.33;100987.19;10290131;28;20058;-78
2023/09/04 19:06:57;;;;;;;3.60;0.55;;;;;;;25.22;37.58;100995.00;10303357;28;20035;-76
2023/09/04 19:11:59;;;;;;;2.33;0.47;;;;;;;25.06;38.29;100994.78;10287724;28;20073;-77
2023/09/04 19:17:00;;;;;;;2.17;0.60;;;;;;;24.87;38.35;100996.19;10293108;28;20220;-78
2023/09/04 19:22:04;;;;;;;1.48;0.68;;;;;;;24.59;39.25;100998.03;10310324;28;20117;-78
2023/09/04 19:27:05;;;;;;;4.35;0.50;;;;;;;24.47;39.53;100991.78;10288758;28;20046;-76
2023/09/04 19:32:07;;;;;;;2.33;0.50;;;;;;;24.29;40.00;100999.22;10283330;28;20047;-75
2023/09/04 19:37:08;;;;;;;2.42;0.45;;;;;;;24.10;40.66;100989.56;10285821;28;20049;-76
2023/09/04 19:42:10;;;;;;;1.63;0.52;;;;;;;23.84;41.25;100985.59;10287958;28;20097;-75
2023/09/04 19:47:12;;;;;;;2.55;0.57;;;;;;;23.69;41.35;100983.38;10275165;28;20047;-77
2023/09/04 19:52:13;;;;;;;2.75;0.65;;;;;;;23.61;41.83;100981.84;10285842;28;20047;-75
2023/09/04 19:57:14;;;;;;;3.00;0.50;;;;;;;23.59;41.73;100981.28;10281629;28;20039;-76
2023/09/04 20:02:16;;;;;;;2.08;0.70;;;;;;;23.50;42.16;100985.50;10299065;28;20074;-77
2023/09/04 20:07:17;;;;;;;2.95;0.57;;;;;;;23.44;42.16;100990.06;10284995;28;20047;-76
2023/09/04 20:12:19;;;;;;;2.42;0.65;;;;;;;23.41;42.48;100987.81;10282131;28;20336;-75
2023/09/04 20:17:20;;;;;;;2.10;0.50;;;;;;;23.36;42.52;100980.31;10287707;28;20102;-78
2023/09/04 20:22:22;;;;;;;2.10;0.60;;;;;;;23.31;42.84;100990.38;10286785;28;20059;-76
2023/09/04 20:27:24;;;;;;;2.28;0.70;;;;;;;23.26;43.20;100985.63;10291798;28;20054;-77
2023/09/04 20:32:25;;;;;;;3.05;0.70;;;;;;;23.25;42.96;100988.59;10285004;28;20304;-79
2023/09/04 20:37:27;;;;;;;1.15;0.52;;;;;;;23.25;43.45;100983.13;10294190;28;20047;-79
2023/09/04 20:42:29;;;;;;;1.73;0.70;;;;;;;23.15;43.67;100981.00;10299358;28;20228;-78
2023/09/04 20:47:34;;;;;;;3.47;0.77;;;;;;;23.10;43.96;100981.72;10310463;28;20039;-79
2023/09/04 20:52:35;;;;;;;2.70;1.20;;;;;;;23.04;44.51;100985.44;10294649;28;20051;-77
2023/09/04 20:57:37;;;;;;;1.77;0.90;;;;;;;22.95;44.72;100995.94;10308195;28;20398;-79
2023/09/04 21:02:40;;;;;;;4.53;0.65;;;;;;;22.79;45.14;100980.25;10293228;28;20050;-77
2023/09/04 23:26:07;;;;;;;4.88;1.00;;;;;;;20.36;52.98;100984.22;10286747;28;20119;-71
2023/09/04 23:31:10;;;;;;;2.40;0.70;;;;;;;20.30;53.10;100985.97;10280356;28;20050;-70
2023/09/04 23:36:24;;;;;;;1.48;0.60;;;;;;;20.20;53.41;100982.88;10283307;28;20050;-71
2023/09/04 23:46:46;;;;;;;2.65;0.80;;;;;;;20.02;53.80;100972.75;10278660;28;20225;-70
2023/09/04 23:51:48;;;;;;;1.33;0.80;;;;;;;19.96;53.89;100966.31;10282608;28;20347;-69
2023/09/04 23:56:49;;;;;;;2.33;0.77;;;;;;;19.90;54.10;100971.81;10279147;28;20049;-70
